sensor_id;sensor_type;location;lat;lon;timestamp;temperature;humidity
66740;DHT22;53653;52.188;8.602;2022-09-30T00:01:24;7.38;85.79
66740;DHT22;53653;52.188;8.602;2022-09-30T00:03:53;7.41;85.87
66740;DHT22;53653;52.188;8.602;2022-09-30T00:06:19;7.38;85.88
66740;DHT22;53653;52.188;8.602;2022-09-30T00:08:45;7.35;85.91
66740;DHT22;53653;52.188;8.602;2022-09-30T00:11:14;7.32;85.92
66740;DHT22;53653;52.188;8.602;2022-09-30T00:13:43;7.31;86.27
66740;DHT22;53653;52.188;8.602;2022-09-30T00:16:09;7.20;88.45
66740;DHT22;53653;52.188;8.602;2022-09-30T00:18:36;7.07;88.71
66740;DHT22;53653;52.188;8.602;2022-09-30T00:21:02;6.96;89.32
66740;DHT22;53653;52.188;8.602;2022-09-30T00:23:28;6.99;88.98
66740;DHT22;53653;52.188;8.602;2022-09-30T00:25:58;7.04;88.93
66740;DHT22;53653;52.188;8.602;2022-09-30T00:28:24;7.07;88.35
66740;DHT22;53653;52.188;8.602;2022-09-30T00:30:50;7.08;88.62
66740;DHT22;53653;52.188;8.602;2022-09-30T00:33:16;7.10;88.37
66740;DHT22;53653;52.188;8.602;2022-09-30T00:35:41;7.11;88.09
66740;DHT22;53653;52.188;8.602;2022-09-30T00:38:06;7.04;89.55
66740;DHT22;53653;52.188;8.602;2022-09-30T00:40:32;7.03;88.92
66740;DHT22;53653;52.188;8.602;2022-09-30T00:42:57;7.08;88.38
66740;DHT22;53653;52.188;8.602;2022-09-30T00:45:26;7.11;87.83
66740;DHT22;53653;52.188;8.602;2022-09-30T00:48:13;7.10;86.97
66740;DHT22;53653;52.188;8.602;2022-09-30T00:50:42;7.08;86.68
66740;DHT22;53653;52.188;8.602;2022-09-30T00:53:19;7.03;87.13
66740;DHT22;53653;52.188;8.602;2022-09-30T00:58:20;6.58;90.10
66740;DHT22;53653;52.188;8.602;2022-09-30T01:00:47;6.45;91.11
66740;DHT22;53653;52.188;8.602;2022-09-30T01:03:14;6.38;91.69
66740;DHT22;53653;52.188;8.602;2022-09-30T01:05:40;6.37;92.25
66740;DHT22;53653;52.188;8.602;2022-09-30T01:08:07;6.42;92.31
66740;DHT22;53653;52.188;8.602;2022-09-30T01:10:33;6.46;92.21
66740;DHT22;53653;52.188;8.602;2022-09-30T01:12:59;6.49;91.92
66740;DHT22;53653;52.188;8.602;2022-09-30T01:21:39;6.66;88.98
66740;DHT22;53653;52.188;8.602;2022-09-30T01:30:14;6.48;91.08
66740;DHT22;53653;52.188;8.602;2022-09-30T01:38:43;6.51;89.93
66740;DHT22;53653;52.188;8.602;2022-09-30T01:46:43;6.41;91.62
66740;DHT22;53653;52.188;8.602;2022-09-30T01:49:26;6.42;91.70
66740;DHT22;53653;52.188;8.602;2022-09-30T01:52:14;6.39;91.83
66740;DHT22;53653;52.188;8.602;2022-09-30T01:57:29;6.38;91.84
66740;DHT22;53653;52.188;8.602;2022-09-30T02:00:08;6.44;91.61
66740;DHT22;53653;52.188;8.602;2022-09-30T02:02:49;6.51;90.85
66740;DHT22;53653;52.188;8.602;2022-09-30T02:05:29;6.53;90.01
66740;DHT22;53653;52.188;8.602;2022-09-30T02:08:09;6.55;89.43
66740;DHT22;53653;52.188;8.602;2022-09-30T02:10:57;6.52;89.70
66740;DHT22;53653;52.188;8.602;2022-09-30T02:13:28;6.48;90.21
66740;DHT22;53653;52.188;8.602;2022-09-30T02:15:59;6.42;90.71
66740;DHT22;53653;52.188;8.602;2022-09-30T02:18:36;6.42;90.76
66740;DHT22;53653;52.188;8.602;2022-09-30T02:21:06;6.37;90.65
66740;DHT22;53653;52.188;8.602;2022-09-30T02:23:34;6.34;90.81
66740;DHT22;53653;52.188;8.602;2022-09-30T02:26:08;6.30;91.33
66740;DHT22;53653;52.188;8.602;2022-09-30T02:28:40;6.30;91.45
66740;DHT22;53653;52.188;8.602;2022-09-30T02:31:09;6.32;91.21
66740;DHT22;53653;52.188;8.602;2022-09-30T02:33:42;6.37;90.49
66740;DHT22;53653;52.188;8.602;2022-09-30T02:38:44;6.35;89.04
66740;DHT22;53653;52.188;8.602;2022-09-30T02:41:13;6.37;88.79
66740;DHT22;53653;52.188;8.602;2022-09-30T02:43:40;6.37;88.69
66740;DHT22;53653;52.188;8.602;2022-09-30T02:46:09;6.32;89.00
66740;DHT22;53653;52.188;8.602;2022-09-30T02:54:16;6.21;90.12
66740;DHT22;53653;52.188;8.602;2022-09-30T02:56:54;6.25;89.69
66740;DHT22;53653;52.188;8.602;2022-09-30T02:59:23;6.24;89.16
66740;DHT22;53653;52.188;8.602;2022-09-30T03:01:49;6.25;88.58
66740;DHT22;53653;52.188;8.602;2022-09-30T03:04:20;6.21;88.13
66740;DHT22;53653;52.188;8.602;2022-09-30T03:06:46;6.16;87.91
66740;DHT22;53653;52.188;8.602;2022-09-30T03:09:12;6.16;87.70
66740;DHT22;53653;52.188;8.602;2022-09-30T03:11:39;6.09;87.38
66740;DHT22;53653;52.188;8.602;2022-09-30T03:17:46;6.00;87.29
66740;DHT22;53653;52.188;8.602;2022-09-30T03:36:58;5.81;91.75
66740;DHT22;53653;52.188;8.602;2022-09-30T03:42:24;5.76;92.86
66740;DHT22;53653;52.188;8.602;2022-09-30T03:47:48;5.83;92.81
66740;DHT22;53653;52.188;8.602;2022-09-30T03:50:20;5.85;92.83
66740;DHT22;53653;52.188;8.602;2022-09-30T03:52:48;5.83;92.85
66740;DHT22;53653;52.188;8.602;2022-09-30T03:55:14;5.80;92.79
66740;DHT22;53653;52.188;8.602;2022-09-30T03:57:41;5.76;92.74
66740;DHT22;53653;52.188;8.602;2022-09-30T04:00:09;5.77;92.41
66740;DHT22;53653;52.188;8.602;2022-09-30T04:02:35;5.77;92.47
66740;DHT22;53653;52.188;8.602;2022-09-30T04:05:03;5.76;92.42
66740;DHT22;53653;52.188;8.602;2022-09-30T04:07:29;5.73;92.43
66740;DHT22;53653;52.188;8.602;2022-09-30T04:09:54;5.70;92.44
66740;DHT22;53653;52.188;8.602;2022-09-30T04:12:20;5.70;92.62
66740;DHT22;53653;52.188;8.602;2022-09-30T04:14:45;5.69;92.77
66740;DHT22;53653;52.188;8.602;2022-09-30T04:17:11;5.70;92.61
66740;DHT22;53653;52.188;8.602;2022-09-30T04:19:36;5.72;92.27
66740;DHT22;53653;52.188;8.602;2022-09-30T04:22:05;5.67;92.43
66740;DHT22;53653;52.188;8.602;2022-09-30T04:24:31;5.67;92.44
66740;DHT22;53653;52.188;8.602;2022-09-30T04:26:57;5.65;92.38
66740;DHT22;53653;52.188;8.602;2022-09-30T04:29:22;5.67;92.09
66740;DHT22;53653;52.188;8.602;2022-09-30T04:31:48;5.69;91.74
66740;DHT22;53653;52.188;8.602;2022-09-30T04:34:13;5.74;91.24
66740;DHT22;53653;52.188;8.602;2022-09-30T04:36:39;5.72;91.13
66740;DHT22;53653;52.188;8.602;2022-09-30T04:39:04;5.66;91.13
66740;DHT22;53653;52.188;8.602;2022-09-30T04:41:30;5.58;91.68
66740;DHT22;53653;52.188;8.602;2022-09-30T04:43:56;5.55;91.88
66740;DHT22;53653;52.188;8.602;2022-09-30T04:46:22;5.51;91.71
66740;DHT22;53653;52.188;8.602;2022-09-30T04:48:48;5.53;91.38
66740;DHT22;53653;52.188;8.602;2022-09-30T04:51:16;5.59;91.05
66740;DHT22;53653;52.188;8.602;2022-09-30T04:53:42;5.62;90.62
66740;DHT22;53653;52.188;8.602;2022-09-30T04:56:08;5.67;90.63
66740;DHT22;53653;52.188;8.602;2022-09-30T04:58:33;5.62;90.15
66740;DHT22;53653;52.188;8.602;2022-09-30T05:01:10;5.53;90.98
66740;DHT22;53653;52.188;8.602;2022-09-30T05:03:36;5.38;91.82
66740;DHT22;53653;52.188;8.602;2022-09-30T05:06:02;5.35;91.88
66740;DHT22;53653;52.188;8.602;2022-09-30T05:08:28;5.41;91.74
66740;DHT22;53653;52.188;8.602;2022-09-30T05:10:54;5.43;91.41
66740;DHT22;53653;52.188;8.602;2022-09-30T05:13:22;5.49;90.90
66740;DHT22;53653;52.188;8.602;2022-09-30T05:15:48;5.53;90.53
66740;DHT22;53653;52.188;8.602;2022-09-30T05:18:14;5.52;90.97
66740;DHT22;53653;52.188;8.602;2022-09-30T05:20:39;5.55;91.05
66740;DHT22;53653;52.188;8.602;2022-09-30T05:23:05;5.63;90.78
66740;DHT22;53653;52.188;8.602;2022-09-30T05:25:30;5.59;90.19
66740;DHT22;53653;52.188;8.602;2022-09-30T05:27:56;5.59;89.78
66740;DHT22;53653;52.188;8.602;2022-09-30T05:30:21;5.58;89.27
66740;DHT22;53653;52.188;8.602;2022-09-30T05:32:46;5.55;88.80
66740;DHT22;53653;52.188;8.602;2022-09-30T05:35:12;5.51;88.46
66740;DHT22;53653;52.188;8.602;2022-09-30T05:37:38;5.49;88.65
66740;DHT22;53653;52.188;8.602;2022-09-30T05:40:05;5.48;89.66
66740;DHT22;53653;52.188;8.602;2022-09-30T05:42:31;5.46;89.88
66740;DHT22;53653;52.188;8.602;2022-09-30T05:45:00;5.48;90.43
66740;DHT22;53653;52.188;8.602;2022-09-30T05:47:26;5.52;89.74
66740;DHT22;53653;52.188;8.602;2022-09-30T05:49:51;5.55;90.11
66740;DHT22;53653;52.188;8.602;2022-09-30T05:52:17;5.69;89.68
66740;DHT22;53653;52.188;8.602;2022-09-30T05:54:42;5.83;89.21
66740;DHT22;53653;52.188;8.602;2022-09-30T05:57:07;5.81;89.75
66740;DHT22;53653;52.188;8.602;2022-09-30T05:59:33;5.90;89.50
66740;DHT22;53653;52.188;8.602;2022-09-30T06:01:58;5.94;89.32
66740;DHT22;53653;52.188;8.602;2022-09-30T06:04:24;6.07;89.61
66740;DHT22;53653;52.188;8.602;2022-09-30T06:06:49;6.25;89.09
66740;DHT22;53653;52.188;8.602;2022-09-30T06:09:15;6.39;88.66
66740;DHT22;53653;52.188;8.602;2022-09-30T06:11:41;6.45;88.35
66740;DHT22;53653;52.188;8.602;2022-09-30T06:14:07;6.59;88.61
66740;DHT22;53653;52.188;8.602;2022-09-30T06:16:32;6.71;87.87
66740;DHT22;53653;52.188;8.602;2022-09-30T06:18:58;6.90;87.68
66740;DHT22;53653;52.188;8.602;2022-09-30T06:21:24;7.13;86.57
66740;DHT22;53653;52.188;8.602;2022-09-30T06:23:49;7.35;85.75
66740;DHT22;53653;52.188;8.602;2022-09-30T06:26:14;7.57;85.02
66740;DHT22;53653;52.188;8.602;2022-09-30T06:28:40;7.69;84.82
66740;DHT22;53653;52.188;8.602;2022-09-30T06:31:07;7.95;84.06
66740;DHT22;53653;52.188;8.602;2022-09-30T06:33:33;8.12;83.09
66740;DHT22;53653;52.188;8.602;2022-09-30T06:35:59;7.90;83.23
66740;DHT22;53653;52.188;8.602;2022-09-30T06:38:29;7.92;83.90
66740;DHT22;53653;52.188;8.602;2022-09-30T06:40:58;8.19;83.57
66740;DHT22;53653;52.188;8.602;2022-09-30T06:43:23;8.17;83.37
66740;DHT22;53653;52.188;8.602;2022-09-30T06:45:48;8.24;82.98
66740;DHT22;53653;52.188;8.602;2022-09-30T06:48:16;8.24;83.55
66740;DHT22;53653;52.188;8.602;2022-09-30T06:50:41;8.47;82.71
66740;DHT22;53653;52.188;8.602;2022-09-30T06:53:08;8.40;82.46
66740;DHT22;53653;52.188;8.602;2022-09-30T06:55:36;8.53;82.61
66740;DHT22;53653;52.188;8.602;2022-09-30T06:58:06;8.60;81.94
66740;DHT22;53653;52.188;8.602;2022-09-30T07:00:36;8.45;82.93
66740;DHT22;53653;52.188;8.602;2022-09-30T07:03:02;8.40;83.12
66740;DHT22;53653;52.188;8.602;2022-09-30T07:05:29;8.48;82.98
66740;DHT22;53653;52.188;8.602;2022-09-30T07:07:55;8.91;82.03
66740;DHT22;53653;52.188;8.602;2022-09-30T07:10:21;9.48;80.49
66740;DHT22;53653;52.188;8.602;2022-09-30T07:12:50;9.82;78.35
66740;DHT22;53653;52.188;8.602;2022-09-30T07:15:17;10.19;76.96
66740;DHT22;53653;52.188;8.602;2022-09-30T07:17:50;10.28;76.57
66740;DHT22;53653;52.188;8.602;2022-09-30T07:20:16;10.25;76.47
66740;DHT22;53653;52.188;8.602;2022-09-30T07:22:41;10.68;76.33
66740;DHT22;53653;52.188;8.602;2022-09-30T07:25:07;10.81;75.19
66740;DHT22;53653;52.188;8.602;2022-09-30T07:27:33;10.33;76.22
66740;DHT22;53653;52.188;8.602;2022-09-30T07:29:59;10.43;76.11
66740;DHT22;53653;52.188;8.602;2022-09-30T07:32:26;10.28;77.29
66740;DHT22;53653;52.188;8.602;2022-09-30T07:34:52;10.46;76.51
66740;DHT22;53653;52.188;8.602;2022-09-30T07:37:18;10.84;75.40
66740;DHT22;53653;52.188;8.602;2022-09-30T07:39:46;10.55;75.75
66740;DHT22;53653;52.188;8.602;2022-09-30T07:42:13;10.70;76.19
66740;DHT22;53653;52.188;8.602;2022-09-30T07:44:40;11.22;75.83
66740;DHT22;53653;52.188;8.602;2022-09-30T07:47:10;11.80;73.10
66740;DHT22;53653;52.188;8.602;2022-09-30T07:49:36;11.18;74.50
66740;DHT22;53653;52.188;8.602;2022-09-30T07:52:02;10.85;75.30
66740;DHT22;53653;52.188;8.602;2022-09-30T07:54:30;11.07;74.76
66740;DHT22;53653;52.188;8.602;2022-09-30T07:56:57;11.22;75.29
66740;DHT22;53653;52.188;8.602;2022-09-30T07:59:23;11.59;73.34
66740;DHT22;53653;52.188;8.602;2022-09-30T08:01:49;11.87;73.86
66740;DHT22;53653;52.188;8.602;2022-09-30T08:04:16;11.95;72.66
66740;DHT22;53653;52.188;8.602;2022-09-30T08:06:45;12.08;72.35
66740;DHT22;53653;52.188;8.602;2022-09-30T08:09:13;12.75;70.78
66740;DHT22;53653;52.188;8.602;2022-09-30T08:11:38;13.20;69.64
66740;DHT22;53653;52.188;8.602;2022-09-30T08:14:05;13.28;67.77
66740;DHT22;53653;52.188;8.602;2022-09-30T08:16:31;13.40;67.99
66740;DHT22;53653;52.188;8.602;2022-09-30T08:18:59;13.67;66.70
66740;DHT22;53653;52.188;8.602;2022-09-30T08:21:26;13.43;67.41
66740;DHT22;53653;52.188;8.602;2022-09-30T08:23:51;13.41;67.48
66740;DHT22;53653;52.188;8.602;2022-09-30T08:26:17;13.82;67.46
66740;DHT22;53653;52.188;8.602;2022-09-30T08:28:44;13.59;66.56
66740;DHT22;53653;52.188;8.602;2022-09-30T08:31:20;13.53;67.01
66740;DHT22;53653;52.188;8.602;2022-09-30T08:33:46;13.67;66.59
66740;DHT22;53653;52.188;8.602;2022-09-30T08:36:20;13.83;65.86
66740;DHT22;53653;52.188;8.602;2022-09-30T08:38:45;14.04;66.00
66740;DHT22;53653;52.188;8.602;2022-09-30T08:41:33;14.08;66.39
66740;DHT22;53653;52.188;8.602;2022-09-30T08:46:44;15.09;61.84
66740;DHT22;53653;52.188;8.602;2022-09-30T08:49:37;14.81;63.62
66740;DHT22;53653;52.188;8.602;2022-09-30T08:52:28;14.60;64.63
66740;DHT22;53653;52.188;8.602;2022-09-30T08:54:55;14.64;64.86
66740;DHT22;53653;52.188;8.602;2022-09-30T08:57:22;14.87;65.00
66740;DHT22;53653;52.188;8.602;2022-09-30T08:59:51;14.81;64.62
66740;DHT22;53653;52.188;8.602;2022-09-30T09:04:49;15.32;63.17
66740;DHT22;53653;52.188;8.602;2022-09-30T09:07:32;15.28;62.78
66740;DHT22;53653;52.188;8.602;2022-09-30T09:10:18;15.69;61.64
66740;DHT22;53653;52.188;8.602;2022-09-30T09:15:41;15.59;63.52
66740;DHT22;53653;52.188;8.602;2022-09-30T09:21:22;15.80;62.66
66740;DHT22;53653;52.188;8.602;2022-09-30T09:23:50;16.07;61.03
66740;DHT22;53653;52.188;8.602;2022-09-30T09:26:17;16.02;61.29
66740;DHT22;53653;52.188;8.602;2022-09-30T09:31:20;16.81;59.74
66740;DHT22;53653;52.188;8.602;2022-09-30T09:33:45;16.62;59.30
66740;DHT22;53653;52.188;8.602;2022-09-30T09:41:47;16.18;60.50
66740;DHT22;53653;52.188;8.602;2022-09-30T09:46:49;16.17;58.56
66740;DHT22;53653;52.188;8.602;2022-09-30T09:51:52;17.00;57.56
66740;DHT22;53653;52.188;8.602;2022-09-30T09:54:24;17.10;57.31
66740;DHT22;53653;52.188;8.602;2022-09-30T09:56:55;17.00;56.15
66740;DHT22;53653;52.188;8.602;2022-09-30T09:59:29;17.54;54.68
66740;DHT22;53653;52.188;8.602;2022-09-30T10:01:55;17.76;54.04
66740;DHT22;53653;52.188;8.602;2022-09-30T10:04:22;18.09;52.92
66740;DHT22;53653;52.188;8.602;2022-09-30T10:06:53;18.22;52.46
66740;DHT22;53653;52.188;8.602;2022-09-30T10:09:36;18.47;51.20
66740;DHT22;53653;52.188;8.602;2022-09-30T10:17:24;18.09;52.47
66740;DHT22;53653;52.188;8.602;2022-09-30T10:19:52;18.17;51.76
66740;DHT22;53653;52.188;8.602;2022-09-30T10:24:48;19.87;47.69
66740;DHT22;53653;52.188;8.602;2022-09-30T10:27:31;20.29;47.08
66740;DHT22;53653;52.188;8.602;2022-09-30T10:29:58;20.32;46.51
66740;DHT22;53653;52.188;8.602;2022-09-30T10:32:24;19.66;49.02
66740;DHT22;53653;52.188;8.602;2022-09-30T10:35:16;21.01;46.16
66740;DHT22;53653;52.188;8.602;2022-09-30T10:37:50;21.10;45.36
66740;DHT22;53653;52.188;8.602;2022-09-30T10:40:17;20.81;44.64
66740;DHT22;53653;52.188;8.602;2022-09-30T10:42:45;20.59;45.80
66740;DHT22;53653;52.188;8.602;2022-09-30T10:45:30;19.82;46.38
66740;DHT22;53653;52.188;8.602;2022-09-30T10:47:57;19.54;47.55
66740;DHT22;53653;52.188;8.602;2022-09-30T10:50:25;19.30;48.88
66740;DHT22;53653;52.188;8.602;2022-09-30T10:55:27;18.12;51.49
66740;DHT22;53653;52.188;8.602;2022-09-30T10:58:00;17.83;51.69
66740;DHT22;53653;52.188;8.602;2022-09-30T11:00:29;17.55;52.64
66740;DHT22;53653;52.188;8.602;2022-09-30T11:02:58;18.02;52.20
66740;DHT22;53653;52.188;8.602;2022-09-30T11:05:47;18.82;49.39
66740;DHT22;53653;52.188;8.602;2022-09-30T11:08:21;18.85;48.70
66740;DHT22;53653;52.188;8.602;2022-09-30T11:13:31;18.74;50.30
66740;DHT22;53653;52.188;8.602;2022-09-30T11:19:02;19.10;48.90
66740;DHT22;53653;52.188;8.602;2022-09-30T11:21:42;19.12;49.44
66740;DHT22;53653;52.188;8.602;2022-09-30T11:26:51;19.15;48.85
66740;DHT22;53653;52.188;8.602;2022-09-30T11:37:17;18.13;50.64
66740;DHT22;53653;52.188;8.602;2022-09-30T11:39:57;18.50;51.33
66740;DHT22;53653;52.188;8.602;2022-09-30T11:58:53;18.65;50.88
66740;DHT22;53653;52.188;8.602;2022-09-30T12:01:40;18.14;51.31
66740;DHT22;53653;52.188;8.602;2022-09-30T12:06:34;17.34;53.82
66740;DHT22;53653;52.188;8.602;2022-09-30T12:09:18;17.08;55.08
66740;DHT22;53653;52.188;8.602;2022-09-30T12:12:00;17.13;54.05
66740;DHT22;53653;52.188;8.602;2022-09-30T12:14:33;17.45;53.30
66740;DHT22;53653;52.188;8.602;2022-09-30T12:17:01;17.99;51.98
66740;DHT22;53653;52.188;8.602;2022-09-30T12:19:36;18.53;50.05
66740;DHT22;53653;52.188;8.602;2022-09-30T12:22:13;17.90;52.22
66740;DHT22;53653;52.188;8.602;2022-09-30T12:24:41;18.16;51.93
66740;DHT22;53653;52.188;8.602;2022-09-30T12:27:33;18.67;50.27
66740;DHT22;53653;52.188;8.602;2022-09-30T12:30:15;18.04;51.00
66740;DHT22;53653;52.188;8.602;2022-09-30T12:35:46;17.64;51.74
66740;DHT22;53653;52.188;8.602;2022-09-30T12:38:18;17.96;51.37
66740;DHT22;53653;52.188;8.602;2022-09-30T12:49:04;17.38;51.02
66740;DHT22;53653;52.188;8.602;2022-09-30T12:51:35;17.31;52.13
66740;DHT22;53653;52.188;8.602;2022-09-30T12:54:35;17.74;51.06
66740;DHT22;53653;52.188;8.602;2022-09-30T12:57:05;18.23;49.37
66740;DHT22;53653;52.188;8.602;2022-09-30T12:59:35;18.30;48.92
66740;DHT22;53653;52.188;8.602;2022-09-30T13:02:03;18.14;48.70
66740;DHT22;53653;52.188;8.602;2022-09-30T13:04:38;18.20;48.93
66740;DHT22;53653;52.188;8.602;2022-09-30T13:07:05;18.07;48.81
66740;DHT22;53653;52.188;8.602;2022-09-30T13:09:37;18.24;48.42
66740;DHT22;53653;52.188;8.602;2022-09-30T13:12:43;18.57;48.92
66740;DHT22;53653;52.188;8.602;2022-09-30T13:17:54;18.58;47.81
66740;DHT22;53653;52.188;8.602;2022-09-30T13:26:33;18.14;48.74
66740;DHT22;53653;52.188;8.602;2022-09-30T13:39:27;18.22;48.48
66740;DHT22;53653;52.188;8.602;2022-09-30T13:44:24;18.24;47.88
66740;DHT22;53653;52.188;8.602;2022-09-30T13:46:59;18.32;48.58
66740;DHT22;53653;52.188;8.602;2022-09-30T13:49:48;18.10;48.06
66740;DHT22;53653;52.188;8.602;2022-09-30T13:52:32;18.09;48.94
66740;DHT22;53653;52.188;8.602;2022-09-30T13:55:08;18.03;48.74
66740;DHT22;53653;52.188;8.602;2022-09-30T14:00:17;18.22;49.29
66740;DHT22;53653;52.188;8.602;2022-09-30T14:03:06;18.45;48.44
66740;DHT22;53653;52.188;8.602;2022-09-30T14:05:51;18.62;48.10
66740;DHT22;53653;52.188;8.602;2022-09-30T14:19:08;18.29;47.21
66740;DHT22;53653;52.188;8.602;2022-09-30T14:21:46;18.18;47.24
66740;DHT22;53653;52.188;8.602;2022-09-30T14:24:15;18.18;46.99
66740;DHT22;53653;52.188;8.602;2022-09-30T14:32:49;17.79;48.42
66740;DHT22;53653;52.188;8.602;2022-09-30T14:35:19;17.90;48.04
66740;DHT22;53653;52.188;8.602;2022-09-30T14:37:50;17.87;48.29
66740;DHT22;53653;52.188;8.602;2022-09-30T14:40:19;17.75;48.44
66740;DHT22;53653;52.188;8.602;2022-09-30T14:42:48;17.74;47.75
66740;DHT22;53653;52.188;8.602;2022-09-30T14:45:23;17.78;47.93
66740;DHT22;53653;52.188;8.602;2022-09-30T14:47:53;17.75;48.10
66740;DHT22;53653;52.188;8.602;2022-09-30T14:50:22;17.74;48.01
66740;DHT22;53653;52.188;8.602;2022-09-30T14:52:50;17.54;48.32
66740;DHT22;53653;52.188;8.602;2022-09-30T14:55:34;17.74;47.64
66740;DHT22;53653;52.188;8.602;2022-09-30T14:58:20;17.65;47.97
66740;DHT22;53653;52.188;8.602;2022-09-30T15:01:09;17.62;48.19
66740;DHT22;53653;52.188;8.602;2022-09-30T15:03:38;17.64;48.19
66740;DHT22;53653;52.188;8.602;2022-09-30T15:06:05;17.47;48.35
66740;DHT22;53653;52.188;8.602;2022-09-30T15:08:33;17.48;48.68
66740;DHT22;53653;52.188;8.602;2022-09-30T15:10:59;17.45;48.82
66740;DHT22;53653;52.188;8.602;2022-09-30T15:13:27;17.42;48.06
66740;DHT22;53653;52.188;8.602;2022-09-30T15:15:56;17.34;49.07
66740;DHT22;53653;52.188;8.602;2022-09-30T15:18:33;17.34;48.94
66740;DHT22;53653;52.188;8.602;2022-09-30T15:21:09;17.24;49.01
66740;DHT22;53653;52.188;8.602;2022-09-30T15:23:38;17.28;49.38
66740;DHT22;53653;52.188;8.602;2022-09-30T15:26:05;17.39;48.73
66740;DHT22;53653;52.188;8.602;2022-09-30T15:28:33;17.41;48.48
66740;DHT22;53653;52.188;8.602;2022-09-30T15:30:59;17.32;49.30
66740;DHT22;53653;52.188;8.602;2022-09-30T15:33:26;17.30;48.05
66740;DHT22;53653;52.188;8.602;2022-09-30T15:36:25;17.14;48.56
66740;DHT22;53653;52.188;8.602;2022-09-30T15:38:51;16.99;49.44
66740;DHT22;53653;52.188;8.602;2022-09-30T15:41:17;16.97;49.81
66740;DHT22;53653;52.188;8.602;2022-09-30T15:43:50;17.02;49.54
66740;DHT22;53653;52.188;8.602;2022-09-30T15:48:45;16.87;49.60
66740;DHT22;53653;52.188;8.602;2022-09-30T15:51:38;16.69;50.97
66740;DHT22;53653;52.188;8.602;2022-09-30T15:56:39;16.63;51.64
66740;DHT22;53653;52.188;8.602;2022-09-30T15:59:05;16.69;50.61
66740;DHT22;53653;52.188;8.602;2022-09-30T16:01:45;16.63;50.83
66740;DHT22;53653;52.188;8.602;2022-09-30T16:06:48;16.60;50.89
66740;DHT22;53653;52.188;8.602;2022-09-30T16:12:06;17.39;49.11
66740;DHT22;53653;52.188;8.602;2022-09-30T16:17:20;17.51;49.06
66740;DHT22;53653;52.188;8.602;2022-09-30T16:19:59;17.49;49.19
66740;DHT22;53653;52.188;8.602;2022-09-30T16:25:22;16.33;52.09
66740;DHT22;53653;52.188;8.602;2022-09-30T16:27:53;15.98;53.05
66740;DHT22;53653;52.188;8.602;2022-09-30T16:30:20;15.83;53.46
66740;DHT22;53653;52.188;8.602;2022-09-30T16:32:49;15.67;53.86
66740;DHT22;53653;52.188;8.602;2022-09-30T16:35:24;15.60;54.39
66740;DHT22;53653;52.188;8.602;2022-09-30T16:37:56;15.49;54.88
66740;DHT22;53653;52.188;8.602;2022-09-30T16:40:24;15.36;55.41
66740;DHT22;53653;52.188;8.602;2022-09-30T16:42:50;15.29;55.68
66740;DHT22;53653;52.188;8.602;2022-09-30T16:45:16;15.15;56.17
66740;DHT22;53653;52.188;8.602;2022-09-30T16:47:43;15.06;56.59
66740;DHT22;53653;52.188;8.602;2022-09-30T16:50:19;14.99;56.95
66740;DHT22;53653;52.188;8.602;2022-09-30T16:52:45;14.92;57.38
66740;DHT22;53653;52.188;8.602;2022-09-30T16:55:11;14.81;57.98
66740;DHT22;53653;52.188;8.602;2022-09-30T16:57:36;14.74;58.21
66740;DHT22;53653;52.188;8.602;2022-09-30T17:00:03;14.64;58.90
66740;DHT22;53653;52.188;8.602;2022-09-30T17:02:29;14.60;59.41
66740;DHT22;53653;52.188;8.602;2022-09-30T17:04:55;14.51;59.55
66740;DHT22;53653;52.188;8.602;2022-09-30T17:07:20;14.44;60.19
66740;DHT22;53653;52.188;8.602;2022-09-30T17:09:45;14.37;60.40
66740;DHT22;53653;52.188;8.602;2022-09-30T17:12:11;14.30;60.54
66740;DHT22;53653;52.188;8.602;2022-09-30T17:14:37;14.26;60.41
66740;DHT22;53653;52.188;8.602;2022-09-30T17:17:03;14.22;60.69
66740;DHT22;53653;52.188;8.602;2022-09-30T17:19:29;14.13;60.93
66740;DHT22;53653;52.188;8.602;2022-09-30T17:21:56;14.06;61.30
66740;DHT22;53653;52.188;8.602;2022-09-30T17:24:22;13.96;61.36
66740;DHT22;53653;52.188;8.602;2022-09-30T17:26:47;13.83;62.07
66740;DHT22;53653;52.188;8.602;2022-09-30T17:29:13;13.77;61.55
66740;DHT22;53653;52.188;8.602;2022-09-30T17:31:38;13.62;61.73
66740;DHT22;53653;52.188;8.602;2022-09-30T17:34:04;13.51;61.98
66740;DHT22;53653;52.188;8.602;2022-09-30T17:36:32;13.48;62.07
66740;DHT22;53653;52.188;8.602;2022-09-30T17:38:57;13.47;62.17
66740;DHT22;53653;52.188;8.602;2022-09-30T17:41:23;13.40;62.37
66740;DHT22;53653;52.188;8.602;2022-09-30T17:44:07;13.38;62.81
66740;DHT22;53653;52.188;8.602;2022-09-30T17:46:43;13.28;62.87
66740;DHT22;53653;52.188;8.602;2022-09-30T17:49:12;13.19;63.11
66740;DHT22;53653;52.188;8.602;2022-09-30T17:51:38;13.14;63.22
66740;DHT22;53653;52.188;8.602;2022-09-30T17:54:04;13.07;63.42
66740;DHT22;53653;52.188;8.602;2022-09-30T17:56:31;13.03;63.56
66740;DHT22;53653;52.188;8.602;2022-09-30T17:58:57;12.96;63.70
66740;DHT22;53653;52.188;8.602;2022-09-30T18:01:26;12.95;63.63
66740;DHT22;53653;52.188;8.602;2022-09-30T18:03:57;12.92;63.69
66740;DHT22;53653;52.188;8.602;2022-09-30T18:06:22;12.92;63.56
66740;DHT22;53653;52.188;8.602;2022-09-30T18:08:49;12.90;63.52
66740;DHT22;53653;52.188;8.602;2022-09-30T18:11:25;12.88;63.45
66740;DHT22;53653;52.188;8.602;2022-09-30T18:13:52;12.83;63.58
66740;DHT22;53653;52.188;8.602;2022-09-30T18:16:19;12.80;64.07
66740;DHT22;53653;52.188;8.602;2022-09-30T18:18:44;12.80;63.86
66740;DHT22;53653;52.188;8.602;2022-09-30T18:21:10;12.78;63.67
66740;DHT22;53653;52.188;8.602;2022-09-30T18:23:35;12.69;64.15
66740;DHT22;53653;52.188;8.602;2022-09-30T18:26:01;12.63;64.34
66740;DHT22;53653;52.188;8.602;2022-09-30T18:28:26;12.45;65.32
66740;DHT22;53653;52.188;8.602;2022-09-30T18:30:51;12.34;65.82
66740;DHT22;53653;52.188;8.602;2022-09-30T18:33:17;12.23;66.13
66740;DHT22;53653;52.188;8.602;2022-09-30T18:35:45;12.10;66.78
66740;DHT22;53653;52.188;8.602;2022-09-30T18:38:12;11.90;67.43
66740;DHT22;53653;52.188;8.602;2022-09-30T18:40:42;11.77;68.25
66740;DHT22;53653;52.188;8.602;2022-09-30T18:43:12;11.66;69.08
66740;DHT22;53653;52.188;8.602;2022-09-30T18:45:38;11.61;69.08
66740;DHT22;53653;52.188;8.602;2022-09-30T18:48:04;11.58;69.24
66740;DHT22;53653;52.188;8.602;2022-09-30T18:50:31;11.51;69.76
66740;DHT22;53653;52.188;8.602;2022-09-30T18:52:58;11.45;70.22
66740;DHT22;53653;52.188;8.602;2022-09-30T18:55:26;11.36;71.08
66740;DHT22;53653;52.188;8.602;2022-09-30T18:57:53;11.24;71.74
66740;DHT22;53653;52.188;8.602;2022-09-30T19:00:19;11.12;71.96
66740;DHT22;53653;52.188;8.602;2022-09-30T19:02:44;11.11;72.10
66740;DHT22;53653;52.188;8.602;2022-09-30T19:05:14;11.07;72.36
66740;DHT22;53653;52.188;8.602;2022-09-30T19:07:41;11.03;72.52
66740;DHT22;53653;52.188;8.602;2022-09-30T19:10:08;11.03;72.49
66740;DHT22;53653;52.188;8.602;2022-09-30T19:12:35;10.97;72.59
66740;DHT22;53653;52.188;8.602;2022-09-30T19:15:05;10.96;72.64